ADDS METAR Data INFO
IDs: Format: Raw Decoded Include TAF

Data at: 2336 UTC 25 Feb 2018

KMPZ 252315Z AUTO 26009KT 10SM CLR 07/M06 A3005 RMK AO2
KMPZ 252255Z AUTO 27012KT 10SM CLR 07/M06 A3005 RMK AO2
KMPZ 252235Z AUTO 26015KT 10SM CLR 07/M07 A3004 RMK AO2
KMPZ 252215Z AUTO 27012KT 10SM CLR 08/M06 A3003 RMK AO2
KMPZ 252155Z AUTO 27013G22KT 10SM CLR 08/M06 A3003 RMK AO2
KMPZ 252135Z AUTO 25015G23KT 10SM CLR 08/M06 A3002 RMK AO2
KMPZ 252115Z AUTO 25021KT 10SM CLR 08/M05 A3001 RMK AO2
KMPZ 252055Z AUTO 24018G21KT 10SM CLR 08/M05 A3001 RMK AO2
KMPZ 252035Z AUTO 24016G24KT 10SM CLR 08/M03 A3000 RMK AO2
KMPZ 252015Z AUTO 25010KT 10SM CLR 08/M03 A3000 RMK AO2
KMPZ 251955Z AUTO 24017G24KT 10SM CLR 07/M03 A3000 RMK AO2
KMPZ 251935Z AUTO 24020G23KT 10SM CLR 07/M02 A2999 RMK AO2
KMPZ 251915Z AUTO 24017G23KT 10SM CLR 07/M02 A3000 RMK AO2
KMPZ 251855Z AUTO 24017G22KT 10SM CLR 06/M03 A3000 RMK AO2
KMPZ 251835Z AUTO 24016G23KT 10SM CLR 06/M03 A3000 RMK AO2
KMPZ 251815Z AUTO 24013G21KT 10SM CLR 06/M03 A3000 RMK AO2
KMPZ 251755Z AUTO 23017KT 10SM CLR 05/M03 A3000 RMK AO2
KMPZ 251735Z AUTO 21011KT 10SM CLR 05/M03 A3000 RMK AO2
KMPZ 251715Z AUTO 25013KT 10SM CLR 03/M05 A2999 RMK AO2
KMPZ 251655Z AUTO 22010KT 10SM CLR 03/M03 A2998 RMK AO2
KMPZ 251635Z AUTO 24012KT 10SM CLR 02/M05 A2998 RMK AO2
KMPZ 251615Z AUTO 24012G15KT 10SM CLR 02/M05 A2998 RMK AO2
KMPZ 251555Z AUTO 24012KT 10SM CLR 01/M05 A2997 RMK AO2
KMPZ 251535Z AUTO 25011KT 10SM CLR 01/M06 A2995 RMK AO2
KMPZ 251515Z AUTO 26010G14KT 10SM CLR 00/M06 A2995 RMK AO2
KMPZ 251455Z AUTO 26010G14KT 10SM CLR 00/M06 A2995 RMK AO2
KMPZ 251435Z AUTO 27011G16KT 10SM CLR 00/M06 A2995 RMK AO2
KMPZ 251415Z AUTO 27011G14KT 10SM CLR 00/M06 A2995 RMK AO2
KMPZ 251355Z AUTO 26010KT 10SM CLR M01/M06 A2994 RMK AO2
KMPZ 251335Z AUTO 26010KT 10SM CLR M01/M06 A2993 RMK AO2
KMPZ 251315Z AUTO 26009KT 10SM CLR M01/M05 A2992 RMK AO2
KMPZ 251255Z AUTO 27009KT 10SM CLR M02/M05 A2992 RMK AO2
KMPZ 251235Z AUTO 27010KT 10SM CLR M02/M05 A2991 RMK AO2
KMPZ 251215Z AUTO 27011G15KT 10SM CLR M01/M04 A2990 RMK AO2
KMPZ 251155Z AUTO 26009KT 10SM CLR M01/M03 A2989 RMK AO2
KMPZ 251135Z AUTO 27007KT 10SM SCT022 M01/M03 A2987 RMK AO2
KMPZ 251115Z AUTO 27010G17KT 10SM BKN022 00/M03 A2987 RMK AO2
KMPZ 251055Z AUTO 27010KT 10SM BKN022 00/M03 A2986 RMK AO2
KMPZ 251035Z AUTO 27010G16KT 10SM OVC022 00/M02 A2985 RMK AO2
KMPZ 251015Z AUTO 28016G20KT 10SM BKN022 00/M02 A2984 RMK AO2
KMPZ 250955Z AUTO 27014G22KT 10SM BKN020 00/M02 A2982 RMK AO2
KMPZ 250935Z AUTO 27013G22KT 10SM OVC020 00/M02 A2982 RMK AO2
KMPZ 250915Z AUTO 26013G25KT 10SM OVC020 00/M01 A2981 RMK AO2
KMPZ 250855Z AUTO 25017KT 10SM OVC020 00/M01 A2980 RMK AO2
KMPZ 250835Z AUTO 25017G22KT 10SM OVC020 00/M01 A2980 RMK AO2
KMPZ 250815Z AUTO 25016G22KT 10SM OVC018 00/M01 A2979 RMK AO2
KMPZ 250755Z AUTO 24016G20KT 10SM BKN018 OVC032 00/M01 A2978 RMK AO2
KMPZ 250735Z AUTO 24015G21KT 10SM OVC032 00/M01 A2978 RMK AO2
KMPZ 250715Z AUTO 25012KT 10SM OVC034 00/M01 A2978 RMK AO2
KMPZ 250655Z AUTO 25013G22KT 10SM SCT019 SCT025 OVC034 00/M01 A2977 RMK AO2
KMPZ 250635Z AUTO 25016G23KT 10SM BKN018 OVC025 00/M01 A2977 RMK AO2
KMPZ 250615Z AUTO 26020G25KT 10SM OVC018 00/M01 A2976 RMK AO2
KMPZ 250555Z AUTO 26016G24KT 10SM OVC018 00/M01 A2975 RMK AO2
KMPZ 250535Z AUTO 27016G29KT 10SM OVC018 00/M01 A2974 RMK AO2
KMPZ 250515Z AUTO 26022G28KT 10SM BKN016 BKN021 00/00 A2972 RMK AO2
KMPZ 250455Z AUTO 27018KT A2971 RMK AO2 PWINO
KMPZ 250335Z AUTO 27027G32KT 10SM 01/01 A2965 RMK AO2 PWINO
KMPZ 250315Z AUTO 27012G20KT 10SM BKN012 BKN046 02/02 A2964 RMK AO2
KMPZ 250255Z AUTO 27018KT 10SM SCT008 BKN012 OVC046 02/02 A2962 RMK AO2
KMPZ 250235Z AUTO 27014G20KT 10SM -RA SCT006 BKN010 OVC044 03/03 A2962 RMK AO2
KMPZ 250215Z AUTO 28011G16KT 5SM RA BKN006 OVC018 03/03 A2960 RMK AO2
KMPZ 250155Z AUTO 26012G19KT 4SM -DZ OVC006 03/03 A2961 RMK AO2 P0001
KMPZ 250135Z AUTO 26014KT 2 1/2SM DZ OVC004 04/04 A2960 RMK AO2 P0001
KMPZ 250115Z AUTO 25010KT 2SM RA OVC004 04/04 A2958 RMK AO2
KMPZ 250055Z AUTO 23005KT 2SM -RA OVC006 04/04 A2958 RMK AO2 P0004
KMPZ 250035Z AUTO 21006KT 1 1/2SM -RA OVC004 04/04 A2959 RMK AO2 P0003
KMPZ 250015Z AUTO 20004KT 1 1/2SM -RA OVC002 04/04 A2959 RMK AO2 P0001
KMPZ 242355Z AUTO 15005KT 2SM RA OVC002 04/04 A2959 RMK AO2
KMPZ 242335Z AUTO 13007KT 1 3/4SM -RA OVC002 04/04 A2959 RMK AO2
KMPZ 242315Z AUTO 13008KT 1 1/4SM DZ OVC002 04/04 A2961 RMK AO2
KMPZ 242255Z AUTO 14008KT 1 1/4SM BR OVC004 04/04 A2963 RMK AO2
KMPZ 242235Z AUTO 14008KT 1 1/4SM BR OVC004 04/04 A2965 RMK AO2
KMPZ 242215Z AUTO 13010KT 1 3/4SM BR OVC004 04/04 A2966 RMK AO2
KMPZ 242155Z AUTO 13011KT 1SM RA OVC004 03/03 A2968 RMK AO2
KMPZ 242135Z AUTO 14011KT 1SM -RA OVC004 03/03 A2971 RMK AO2
KMPZ 242115Z AUTO 14013G17KT 1 1/4SM -RA OVC004 03/03 A2973 RMK AO2
KMPZ 242055Z AUTO 13011KT 2 1/2SM BR OVC004 03/03 A2973 RMK AO2
KMPZ 242035Z AUTO 12008KT 2 1/2SM BR OVC004 03/03 A2973 RMK AO2
KMPZ 242015Z AUTO 11012KT 2SM BR OVC004 03/03 A2974 RMK AO2
KMPZ 241955Z AUTO 11010KT 1 3/4SM BR OVC004 02/02 A2976 RMK AO2
KMPZ 241935Z AUTO 11011KT 2SM BR OVC006 02/02 A2979 RMK AO2
KMPZ 241915Z AUTO 12008KT 2 1/2SM -DZ OVC006 02/02 A2984 RMK AO2
KMPZ 241855Z AUTO 13013G18KT 4SM BR OVC006 02/02 A2985 RMK AO2
KMPZ 241835Z AUTO 11015G19KT 2 1/2SM BR OVC006 02/02 A2984 RMK AO2
KMPZ 241815Z AUTO 11013KT 1 3/4SM -RA OVC006 01/01 A2988 RMK AO2
KMPZ 241755Z AUTO 10012KT 1 1/4SM RA OVC006 01/01 A2990 RMK AO2
KMPZ 241735Z AUTO 10010KT 1 1/4SM -RA OVC006 01/01 A2992 RMK AO2
KMPZ 241715Z AUTO 10010G16KT 1 1/2SM -RA OVC006 01/01 A2993 RMK AO2
KMPZ 241655Z AUTO 10013KT 1 3/4SM BR OVC006 01/01 A2994 RMK AO2
KMPZ 241635Z AUTO 09013KT 1 1/4SM -RA OVC006 00/00 A2996 RMK AO2
KMPZ 241615Z AUTO 09011KT 1 1/4SM -DZ OVC006 00/00 A2998 RMK AO2
KMPZ 241555Z AUTO 10009KT 1SM -RA OVC008 00/00 A3001 RMK AO2
KMPZ 241535Z AUTO 10008KT 1 3/4SM DZ OVC008 00/00 A3004 RMK AO2
KMPZ 241515Z AUTO 10009KT 2 1/2SM BR OVC010 00/00 A3005 RMK AO2
KMPZ 241455Z AUTO 09009KT 3SM -DZ BKN010 BKN032 OVC048 00/00 A3006 RMK AO2
KMPZ 241435Z AUTO 09009KT 4SM -DZ SCT008 OVC050 00/M01 A3007 RMK AO2
KMPZ 241415Z AUTO 10010KT 5SM BR SCT008 OVC060 00/M01 A3007 RMK AO2
KMPZ 241355Z AUTO 10010KT 5SM BR BKN060 OVC070 00/M01 A3008 RMK AO2
KMPZ 241335Z AUTO 09009KT 5SM BR BKN070 OVC080 00/M01 A3007 RMK AO2
KMPZ 241315Z AUTO 08009KT 7SM UP SCT065 OVC080 00/M01 A3008 RMK AO2
KMPZ 241255Z AUTO 09011KT 7SM SCT050 BKN065 OVC080 00/M01 A3009 RMK AO2
KMPZ 241235Z AUTO 09011KT 5SM -RA SCT040 BKN050 OVC065 00/M01 A3011 RMK AO2
KMPZ 241215Z AUTO 08010KT 5SM UP OVC055 M01/M02 A3012 RMK AO2
KMPZ 241155Z AUTO 07010KT 7SM UP BKN060 BKN070 OVC090 M01/M02 A3012 RMK AO2